createdAt,value
2019-02-25T00:00:19.946Z,77.34
2019-02-25T00:01:19.966Z,78.33
2019-02-25T00:02:19.907Z,78.39
2019-02-25T00:03:20.017Z,78.39
2019-02-25T00:04:19.977Z,76.82
2019-02-25T00:05:19.877Z,76.86
2019-02-25T00:06:19.908Z,76.96
2019-02-25T00:07:19.860Z,75.67
2019-02-25T00:08:19.988Z,75.49
2019-02-25T00:09:19.842Z,77.07
2019-02-25T00:10:19.929Z,78.43
2019-02-25T00:11:19.812Z,78.64
2019-02-25T00:12:19.839Z,78.43
2019-02-25T00:13:19.791Z,78.85
2019-02-25T00:14:19.862Z,79.16
2019-02-25T00:15:19.772Z,79.79
2019-02-25T00:16:20.813Z,80.84
2019-02-25T00:17:19.745Z,80.84
2019-02-25T00:18:19.832Z,80.42
2019-02-25T00:19:19.723Z,80.53
2019-02-25T00:20:19.733Z,80.32
2019-02-25T00:21:19.734Z,80.53
2019-02-25T00:22:19.695Z,80.32
2019-02-25T00:23:19.764Z,80.21
2019-02-25T00:24:19.714Z,79.69
2019-02-25T00:25:19.675Z,78.96
2019-02-25T00:26:19.646Z,77.28
2019-02-25T00:27:19.737Z,76.86
2019-02-25T00:28:19.628Z,76.65
2019-02-25T00:29:20.697Z,76.65
2019-02-25T00:30:19.687Z,76.23
2019-02-25T00:31:19.585Z,77.17
2019-02-25T00:32:19.678Z,78.22
2019-02-25T00:33:19.558Z,78.53
2019-02-25T00:34:19.608Z,79.58
2019-02-25T00:35:19.574Z,79.58
2019-02-25T00:36:19.559Z,79.62
2019-02-25T00:37:19.510Z,80.32
2019-02-25T00:38:20.600Z,80.42
2019-02-25T00:39:19.490Z,81.16
2019-02-25T00:40:19.561Z,80.88
2019-02-25T00:41:19.471Z,81.51
2019-02-25T00:42:20.592Z,81.20
2019-02-25T00:43:19.452Z,81.72
2019-02-25T00:44:21.543Z,81.99
2019-02-25T00:45:19.442Z,81.79
2019-02-25T00:46:19.423Z,81.79
2019-02-25T00:47:19.413Z,80.77
2019-02-25T00:48:26.225Z,80.57
2019-02-25T00:49:19.394Z,79.16
2019-02-25T00:50:19.456Z,78.64
2019-02-25T00:51:19.495Z,78.57
2019-02-25T00:52:19.356Z,77.10
2019-02-25T00:53:19.405Z,77.31
2019-02-25T00:54:19.336Z,76.96
2019-02-25T00:55:21.389Z,76.96
2019-02-25T00:56:19.326Z,78.67
2019-02-25T00:57:19.377Z,79.30
2019-02-25T00:58:19.288Z,79.93
2019-02-25T00:59:20.339Z,79.52
2019-02-25T01:00:19.268Z,80.15
2019-02-25T01:01:19.299Z,80.04
2019-02-25T01:02:19.229Z,80.15
2019-02-25T01:03:19.282Z,80.25
2019-02-25T01:04:19.220Z,80.88
2019-02-25T01:05:19.323Z,81.09
2019-02-25T01:06:19.210Z,81.09
2019-02-25T01:07:19.191Z,80.04
2019-02-25T01:08:19.184Z,80.25
2019-02-25T01:09:19.192Z,79.83
2019-02-25T01:10:19.142Z,79.93
2019-02-25T01:11:20.192Z,79.93
2019-02-25T01:12:19.123Z,79.72
2019-02-25T01:13:19.163Z,78.89
2019-02-25T01:14:19.103Z,78.50
2019-02-25T01:15:19.195Z,77.62
2019-02-25T01:16:19.096Z,77.00
2019-02-25T01:17:19.134Z,77.10
2019-02-25T01:18:19.054Z,77.10
2019-02-25T01:19:19.068Z,76.79
2019-02-25T01:20:19.055Z,78.47
2019-02-25T01:21:19.147Z,78.47
2019-02-25T01:22:19.016Z,79.30
2019-02-25T01:23:18.997Z,79.62
2019-02-25T01:24:19.030Z,80.04
2019-02-25T01:25:18.993Z,80.04
2019-02-25T01:26:19.152Z,80.46
2019-02-25T01:27:18.968Z,80.35
2019-02-25T01:28:18.961Z,80.04
2019-02-25T01:29:18.939Z,80.46
2019-02-25T01:30:19.943Z,79.93
2019-02-25T01:31:18.959Z,78.71
2019-02-25T01:32:18.962Z,78.61
2019-02-25T01:33:18.922Z,79.03
2019-02-25T01:34:18.890Z,79.86
2019-02-25T01:35:19.983Z,79.97
2019-02-25T01:36:18.884Z,80.35
2019-02-25T01:37:18.902Z,80.57
2019-02-25T01:38:18.842Z,80.46
2019-02-25T01:39:18.933Z,80.29
2019-02-25T01:40:18.823Z,79.66
2019-02-25T01:41:18.916Z,79.97
2019-02-25T01:42:18.803Z,79.41
2019-02-25T01:43:18.905Z,78.57
2019-02-25T01:44:18.774Z,78.47
2019-02-25T01:45:18.834Z,76.79
2019-02-25T01:46:18.775Z,77.21
2019-02-25T01:47:33.815Z,75.74
2019-02-25T01:48:18.727Z,75.95
2019-02-25T01:49:18.717Z,76.02
2019-02-25T01:50:18.717Z,74.87
2019-02-25T01:51:18.787Z,75.29
2019-02-25T01:52:18.691Z,75.29
2019-02-25T01:53:18.779Z,75.39
2019-02-25T01:54:18.661Z,75.70
2019-02-25T01:55:18.819Z,76.65
2019-02-25T01:56:18.650Z,78.36
2019-02-25T01:57:25.299Z,79.41
2019-02-25T01:58:18.610Z,79.62
2019-02-25T01:59:18.599Z,80.46
2019-02-25T02:00:18.610Z,80.91
2019-02-25T02:01:21.848Z,81.09
2019-02-25T02:02:18.581Z,81.02
2019-02-25T02:03:18.674Z,80.81
2019-02-25T02:04:18.542Z,80.81
2019-02-25T02:05:18.702Z,81.23
2019-02-25T02:06:18.608Z,81.23
2019-02-25T02:07:18.645Z,81.12
2019-02-25T02:08:18.516Z,81.34
2019-02-25T02:09:18.578Z,81.65
2019-02-25T02:10:18.497Z,81.12
2019-02-25T02:11:18.565Z,80.91
2019-02-25T02:12:18.465Z,79.86
2019-02-25T02:13:18.546Z,78.92
2019-02-25T02:14:18.456Z,78.61
2019-02-25T02:15:18.436Z,78.08
2019-02-25T02:16:18.447Z,78.29
2019-02-25T02:17:19.436Z,78.29
2019-02-25T02:18:18.409Z,78.50
2019-02-25T02:19:25.208Z,77.03
2019-02-25T02:20:18.423Z,76.61
2019-02-25T02:21:18.388Z,78.61
2019-02-25T02:22:19.381Z,79.66
2019-02-25T02:23:18.383Z,80.91
2019-02-25T02:24:18.391Z,81.02
2019-02-25T02:25:18.334Z,80.91
2019-02-25T02:26:18.369Z,80.91
2019-02-25T02:27:18.291Z,81.02
2019-02-25T02:28:18.370Z,81.12
2019-02-25T02:29:18.272Z,80.91
2019-02-25T02:30:18.301Z,80.49
2019-02-25T02:31:18.281Z,79.97
2019-02-25T02:32:18.332Z,78.50
2019-02-25T02:33:18.237Z,78.50
2019-02-25T02:34:18.263Z,77.45
2019-02-25T02:35:18.212Z,77.14
2019-02-25T02:36:18.220Z,77.56
2019-02-25T02:37:18.273Z,78.29
2019-02-25T02:38:18.175Z,79.76
2019-02-25T02:39:18.228Z,80.60
2019-02-25T02:40:18.155Z,80.49
2019-02-25T02:41:18.166Z,80.53
2019-02-25T02:42:18.139Z,81.27
2019-02-25T02:43:18.187Z,81.37
2019-02-25T02:44:18.117Z,81.27
2019-02-25T02:45:18.131Z,81.58
2019-02-25T02:46:18.108Z,81.69
2019-02-25T02:47:18.161Z,81.16
2019-02-25T02:48:18.068Z,80.85
2019-02-25T02:49:18.098Z,81.27
2019-02-25T02:50:18.050Z,81.27
2019-02-25T02:51:18.079Z,80.85
2019-02-25T02:52:18.038Z,80.95
2019-02-25T02:53:18.070Z,80.53
2019-02-25T02:54:18.049Z,81.48
2019-02-25T02:55:20.054Z,81.69
2019-02-25T02:56:18.020Z,82.00
2019-02-25T02:57:17.975Z,81.90
2019-02-25T02:58:18.006Z,82.00
2019-02-25T02:59:17.952Z,82.00
2019-02-25T03:00:18.049Z,82.53
2019-02-25T03:01:17.922Z,82.42
2019-02-25T03:02:17.924Z,82.42
2019-02-25T03:03:17.944Z,81.58
2019-02-25T03:04:17.916Z,81.16
2019-02-25T03:05:17.875Z,81.48
2019-02-25T03:06:17.944Z,81.16
2019-02-25T03:07:17.866Z,80.85
2019-02-25T03:08:17.889Z,80.95
2019-02-25T03:09:17.846Z,80.53
2019-02-25T03:10:17.917Z,80.43
2019-02-25T03:11:17.806Z,80.64
2019-02-25T03:12:17.916Z,79.58
2019-02-25T03:13:17.806Z,78.75
2019-02-25T03:14:17.893Z,78.33
2019-02-25T03:15:17.868Z,78.85
2019-02-25T03:16:17.874Z,79.58
2019-02-25T03:17:17.781Z,79.80
2019-02-25T03:18:17.738Z,80.53
2019-02-25T03:19:17.733Z,80.11
2019-02-25T03:20:17.810Z,80.43
2019-02-25T03:21:17.712Z,80.00
2019-02-25T03:22:19.732Z,78.85
2019-02-25T03:23:17.712Z,78.64
2019-02-25T03:24:17.671Z,78.22
2019-02-25T03:25:17.775Z,78.64
2019-02-25T03:26:17.652Z,79.17
2019-02-25T03:27:17.731Z,79.90
2019-02-25T03:28:17.633Z,80.53
2019-02-25T03:29:17.724Z,80.99
2019-02-25T03:30:17.648Z,81.16
2019-02-25T03:31:17.647Z,81.30
2019-02-25T03:32:17.605Z,80.46
2019-02-25T03:33:17.686Z,80.46
2019-02-25T03:34:17.569Z,80.53
2019-02-25T03:35:17.677Z,80.43
2019-02-25T03:36:17.526Z,80.57
2019-02-25T03:37:17.597Z,80.26
2019-02-25T03:38:17.518Z,81.20
2019-02-25T03:39:17.495Z,80.99
2019-02-25T03:40:17.492Z,81.20
2019-02-25T03:41:17.526Z,81.93
2019-02-25T03:42:17.502Z,81.62
2019-02-25T03:43:17.557Z,81.93
2019-02-25T03:44:18.970Z,82.04
2019-02-25T03:45:17.512Z,82.35
2019-02-25T03:46:17.420Z,82.04
2019-02-25T03:47:17.480Z,82.56
2019-02-25T03:48:17.400Z,82.56
2019-02-25T03:49:20.379Z,82.46
2019-02-25T03:50:17.387Z,82.04
2019-02-25T03:51:17.410Z,81.83
2019-02-25T03:52:17.381Z,82.14
2019-02-25T03:53:17.452Z,82.04
2019-02-25T03:54:17.342Z,82.04
2019-02-25T03:55:17.333Z,81.41
2019-02-25T03:56:18.383Z,80.43
2019-02-25T03:57:17.304Z,80.15
2019-02-25T03:58:17.392Z,79.62
2019-02-25T03:59:17.293Z,79.10
2019-02-25T04:00:17.281Z,78.43
2019-02-25T04:01:17.265Z,77.84
2019-02-25T04:02:17.305Z,76.86
2019-02-25T04:03:17.246Z,76.96
2019-02-25T04:04:17.295Z,77.17
2019-02-25T04:05:17.226Z,78.67
2019-02-25T04:06:17.225Z,79.41
2019-02-25T04:07:17.231Z,79.58
2019-02-25T04:08:17.281Z,80.04
2019-02-25T04:09:17.177Z,80.57
2019-02-25T04:10:17.197Z,81.41
2019-02-25T04:11:17.158Z,81.30
2019-02-25T04:12:17.178Z,81.69
2019-02-25T04:13:17.119Z,81.73
2019-02-25T04:14:17.169Z,81.41
2019-02-25T04:15:17.313Z,81.41
2019-02-25T04:16:17.095Z,81.45
2019-02-25T04:17:17.120Z,80.57
2019-02-25T04:18:17.071Z,81.34
2019-02-25T04:19:17.117Z,81.41
2019-02-25T04:20:17.062Z,81.93
2019-02-25T04:21:17.051Z,81.51
2019-02-25T04:22:17.042Z,81.41
2019-02-25T04:23:17.080Z,80.57
2019-02-25T04:24:17.004Z,80.57
2019-02-25T04:25:18.033Z,79.41
2019-02-25T04:26:17.082Z,79.24
2019-02-25T04:27:16.985Z,78.67
2019-02-25T04:28:17.013Z,78.57
2019-02-25T04:29:16.944Z,78.78
2019-02-25T04:30:16.965Z,78.05
2019-02-25T04:31:16.934Z,77.42
2019-02-25T04:32:17.964Z,77.21
2019-02-25T04:33:16.917Z,77.21
2019-02-25T04:34:16.939Z,77.42
2019-02-25T04:35:16.896Z,78.15
2019-02-25T04:36:16.986Z,78.75
2019-02-25T04:37:16.889Z,79.83
2019-02-25T04:38:16.907Z,80.15
2019-02-25T04:39:16.848Z,80.57
2019-02-25T04:40:17.858Z,81.09
2019-02-25T04:41:16.829Z,81.41
2019-02-25T04:42:16.829Z,81.41
2019-02-25T04:43:16.804Z,81.62
2019-02-25T04:44:16.809Z,81.62
2019-02-25T04:45:16.828Z,81.73
2019-02-25T04:46:16.850Z,80.99
2019-02-25T04:47:16.761Z,80.60
2019-02-25T04:48:17.800Z,79.83
2019-02-25T04:49:16.741Z,79.87
2019-02-25T04:50:16.827Z,80.46
2019-02-25T04:51:16.708Z,81.20
2019-02-25T04:52:17.823Z,81.41
2019-02-25T04:53:16.703Z,81.41
2019-02-25T04:54:16.793Z,81.65
2019-02-25T04:55:16.666Z,82.50
2019-02-25T04:56:16.723Z,82.98
2019-02-25T04:57:16.660Z,82.56
2019-02-25T04:58:16.657Z,81.83
2019-02-25T04:59:16.727Z,81.55
2019-02-25T05:00:16.615Z,81.97
2019-02-25T05:01:16.667Z,82.60
2019-02-25T05:02:16.616Z,82.50
2019-02-25T05:03:16.586Z,82.39
2019-02-25T05:04:16.573Z,82.92
2019-02-25T05:05:17.667Z,83.02
2019-02-25T05:06:16.571Z,82.50
2019-02-25T05:07:16.578Z,82.18
2019-02-25T05:08:16.590Z,81.45
2019-02-25T05:09:16.518Z,80.92
2019-02-25T05:10:16.578Z,80.40
2019-02-25T05:11:16.499Z,81.30
2019-02-25T05:12:16.523Z,82.07
2019-02-25T05:13:16.489Z,81.87
2019-02-25T05:14:16.563Z,81.97
2019-02-25T05:15:16.450Z,82.07
2019-02-25T05:16:16.481Z,81.97
2019-02-25T05:17:16.430Z,81.97
2019-02-25T05:18:16.464Z,81.97
2019-02-25T05:19:16.412Z,81.55
2019-02-25T05:20:16.451Z,81.45
2019-02-25T05:21:16.392Z,81.55
2019-02-25T05:22:16.393Z,81.34
2019-02-25T05:23:16.383Z,80.50
2019-02-25T05:24:16.345Z,79.52
2019-02-25T05:25:16.399Z,79.66
2019-02-25T05:26:16.334Z,80.08
2019-02-25T05:27:17.356Z,81.02
2019-02-25T05:28:16.316Z,80.82
2019-02-25T05:29:16.285Z,81.55
2019-02-25T05:30:16.291Z,81.34
2019-02-25T05:31:16.296Z,81.45
2019-02-25T05:32:16.256Z,81.97
2019-02-25T05:33:16.308Z,81.45
2019-02-25T05:34:16.238Z,81.65
2019-02-25T05:35:16.280Z,81.97
2019-02-25T05:36:16.227Z,81.97
2019-02-25T05:37:16.308Z,82.07
2019-02-25T05:38:16.208Z,82.50
2019-02-25T05:39:16.255Z,82.39
2019-02-25T05:40:16.227Z,82.60
2019-02-25T05:41:16.189Z,82.60
2019-02-25T05:42:16.163Z,82.50
2019-02-25T05:43:16.275Z,82.07
2019-02-25T05:44:16.130Z,81.59
2019-02-25T05:45:16.120Z,81.38
2019-02-25T05:46:16.111Z,80.64
2019-02-25T05:47:17.112Z,80.29
2019-02-25T05:48:16.101Z,79.97
2019-02-25T05:49:16.132Z,79.66
2019-02-25T05:50:16.092Z,79.55
2019-02-25T05:51:16.053Z,80.40
2019-02-25T05:52:16.134Z,81.34
2019-02-25T05:53:16.053Z,81.76
2019-02-25T05:54:16.081Z,81.76
2019-02-25T05:55:16.022Z,82.07
2019-02-25T05:56:16.106Z,82.50
2019-02-25T05:57:15.995Z,82.60
2019-02-25T05:58:16.099Z,82.39
2019-02-25T05:59:15.994Z,82.75
2019-02-25T06:00:15.980Z,82.81
2019-02-25T06:01:15.941Z,82.92
2019-02-25T06:02:16.006Z,82.53
2019-02-25T06:03:15.927Z,81.76
2019-02-25T06:04:15.950Z,81.13
2019-02-25T06:05:15.898Z,80.08
2019-02-25T06:06:15.888Z,79.87
2019-02-25T06:07:16.988Z,79.13
2019-02-25T06:08:15.901Z,78.92
2019-02-25T06:09:15.889Z,79.77
2019-02-25T06:10:15.839Z,81.41
2019-02-25T06:11:15.829Z,81.51
2019-02-25T06:12:15.821Z,81.55
2019-02-25T06:13:15.900Z,81.55
2019-02-25T06:14:15.791Z,81.55
2019-02-25T06:15:16.826Z,81.87
2019-02-25T06:16:15.781Z,81.02
2019-02-25T06:17:16.862Z,80.60
2019-02-25T06:18:15.787Z,79.62
2019-02-25T06:19:15.773Z,80.04
2019-02-25T06:20:15.722Z,79.21
2019-02-25T06:21:15.816Z,80.88
2019-02-25T06:22:15.773Z,81.73
2019-02-25T06:23:15.734Z,81.41
2019-02-25T06:24:15.704Z,81.20
2019-02-25T06:25:15.692Z,81.30
2019-02-25T06:26:15.747Z,81.45
2019-02-25T06:27:15.666Z,81.24
2019-02-25T06:28:15.679Z,82.07
2019-02-25T06:29:15.657Z,82.18
2019-02-25T06:30:15.717Z,82.29
2019-02-25T06:31:15.616Z,82.50
2019-02-25T06:32:15.607Z,83.02
2019-02-25T06:33:15.597Z,82.29
2019-02-25T06:34:15.633Z,81.97
2019-02-25T06:35:15.558Z,82.67
2019-02-25T06:36:15.620Z,82.60
2019-02-25T06:37:15.538Z,82.07
2019-02-25T06:38:15.528Z,81.51
2019-02-25T06:39:15.589Z,81.73
2019-02-25T06:40:16.074Z,81.83
2019-02-25T06:41:15.560Z,81.51
2019-02-25T06:42:15.492Z,81.73
2019-02-25T06:43:15.480Z,82.14
2019-02-25T06:44:15.502Z,82.14
2019-02-25T06:45:15.452Z,82.56
2019-02-25T06:46:15.628Z,82.14
2019-02-25T06:47:15.524Z,81.93
2019-02-25T06:48:15.422Z,81.41
2019-02-25T06:49:16.122Z,81.20
2019-02-25T06:50:15.403Z,80.88
2019-02-25T06:51:15.793Z,80.36
2019-02-25T06:52:15.383Z,80.88
2019-02-25T06:53:15.363Z,80.26
2019-02-25T06:54:15.354Z,80.36
2019-02-25T06:55:18.178Z,81.41
2019-02-25T06:56:15.346Z,82.10
2019-02-25T06:57:15.356Z,82.63
2019-02-25T06:58:15.326Z,82.14
2019-02-25T06:59:17.386Z,81.58
2019-02-25T07:00:15.309Z,81.73
2019-02-25T07:01:15.328Z,82.53
2019-02-25T07:02:15.277Z,82.63
2019-02-25T07:03:15.368Z,82.74
2019-02-25T07:04:15.283Z,82.63
2019-02-25T07:05:16.319Z,82.63
2019-02-25T07:06:15.238Z,82.42
2019-02-25T07:07:15.443Z,81.90
2019-02-25T07:08:15.223Z,82.21
2019-02-25T07:09:15.220Z,82.53
2019-02-25T07:10:15.220Z,82.84
2019-02-25T07:11:15.181Z,82.32
2019-02-25T07:12:15.270Z,82.00
2019-02-25T07:13:15.256Z,81.58
2019-02-25T07:14:15.162Z,81.58
2019-02-25T07:15:15.176Z,82.00
2019-02-25T07:16:15.122Z,82.53
2019-02-25T07:17:15.224Z,82.74
2019-02-25T07:18:15.093Z,82.39
2019-02-25T07:19:15.104Z,82.49
2019-02-25T07:20:15.076Z,82.07
2019-02-25T07:21:15.206Z,81.54
2019-02-25T07:22:15.054Z,80.39
2019-02-25T07:23:15.115Z,80.39
2019-02-25T07:24:15.157Z,80.08
2019-02-25T07:25:15.037Z,78.61
2019-02-25T07:26:15.126Z,79.03
2019-02-25T07:27:15.016Z,79.62
2019-02-25T07:28:15.066Z,80.57
2019-02-25T07:29:15.009Z,81.40
2019-02-25T07:30:14.997Z,81.82
2019-02-25T07:31:14.967Z,82.45
2019-02-25T07:32:16.059Z,81.30
2019-02-25T07:33:14.949Z,80.98
2019-02-25T07:34:14.949Z,80.98
2019-02-25T07:35:14.923Z,81.61
2019-02-25T07:36:14.990Z,81.72
2019-02-25T07:37:14.890Z,81.40
2019-02-25T07:38:16.980Z,81.16
2019-02-25T07:39:14.890Z,80.35
2019-02-25T07:40:14.981Z,80.77
2019-02-25T07:41:14.861Z,81.05
2019-02-25T07:42:15.934Z,80.46
2019-02-25T07:43:15.513Z,79.38
2019-02-25T07:44:14.843Z,79.69
2019-02-25T07:45:14.822Z,79.16
2019-02-25T07:46:14.983Z,78.64
2019-02-25T07:47:14.783Z,78.64
2019-02-25T07:48:14.823Z,78.50
2019-02-25T07:49:14.794Z,78.71
2019-02-25T07:50:14.767Z,77.94
2019-02-25T07:51:14.727Z,77.20
2019-02-25T07:52:14.785Z,77.42
2019-02-25T07:53:14.705Z,77.28
2019-02-25T07:54:14.727Z,76.96
2019-02-25T07:55:14.727Z,77.28
2019-02-25T07:56:14.710Z,77.34
2019-02-25T07:57:14.727Z,77.14
2019-02-25T07:58:14.663Z,76.89
2019-02-25T07:59:14.779Z,76.79
2019-02-25T08:00:14.658Z,76.65
2019-02-25T08:01:14.718Z,74.52
2019-02-25T08:02:14.619Z,74.63
2019-02-25T08:03:14.639Z,73.75
2019-02-25T08:04:14.609Z,73.10
2019-02-25T08:05:14.615Z,72.44
2019-02-25T08:06:14.583Z,72.33
2019-02-25T08:07:15.640Z,72.41
2019-02-25T08:08:14.830Z,71.88
2019-02-25T08:09:14.660Z,71.67
2019-02-25T08:10:14.562Z,71.12
2019-02-25T08:11:14.513Z,71.12
2019-02-25T08:12:14.523Z,71.09
2019-02-25T08:13:14.523Z,70.88
2019-02-25T08:14:14.504Z,70.46
2019-02-25T08:15:14.583Z,71.61
2019-02-25T08:16:14.476Z,71.92
2019-02-25T08:17:14.466Z,71.61
2019-02-25T08:18:14.453Z,71.78
2019-02-25T08:19:14.525Z,71.44
2019-02-25T08:20:14.455Z,70.81
2019-02-25T08:21:14.466Z,71.02
2019-02-25T08:22:14.426Z,70.99
2019-02-25T08:23:14.407Z,70.19
2019-02-25T08:24:15.487Z,70.19
2019-02-25T08:25:14.397Z,70.19
2019-02-25T08:26:14.399Z,70.19
2019-02-25T08:27:14.347Z,70.36
2019-02-25T08:28:15.460Z,70.15
2019-02-25T08:29:14.329Z,69.50
2019-02-25T08:30:14.421Z,69.26
2019-02-25T08:31:14.300Z,67.57
2019-02-25T08:32:14.313Z,67.98
2019-02-25T08:33:14.281Z,68.05
2019-02-25T08:34:21.314Z,67.61
2019-02-25T08:35:14.274Z,67.92
2019-02-25T08:36:15.311Z,67.58
2019-02-25T08:37:14.254Z,67.27
2019-02-25T08:38:14.224Z,66.30
2019-02-25T08:39:14.224Z,66.61
2019-02-25T08:40:14.313Z,65.26
2019-02-25T08:41:14.202Z,65.16
2019-02-25T08:42:16.244Z,64.51
2019-02-25T08:43:14.193Z,64.65
2019-02-25T08:44:14.225Z,64.21
2019-02-25T08:45:14.175Z,63.66
2019-02-25T08:46:14.169Z,63.97
2019-02-25T08:47:14.137Z,64.15
2019-02-25T08:48:14.206Z,62.88
2019-02-25T08:49:14.100Z,62.57
2019-02-25T08:50:14.189Z,60.96
2019-02-25T08:51:14.104Z,60.52
2019-02-25T08:52:14.178Z,60.28
2019-02-25T08:53:14.078Z,60.28
2019-02-25T08:54:14.078Z,59.95
2019-02-25T08:55:14.060Z,59.64
2019-02-25T08:56:14.150Z,59.23
2019-02-25T08:57:14.030Z,58.76
2019-02-25T08:58:14.080Z,56.44
2019-02-25T08:59:14.012Z,54.64
2019-02-25T09:00:14.071Z,53.07
2019-02-25T09:01:15.481Z,51.68
2019-02-25T09:02:14.062Z,51.25
2019-02-25T09:03:13.962Z,50.07
2019-02-25T09:04:13.993Z,50.28
2019-02-25T09:05:14.019Z,49.10
2019-02-25T09:06:13.934Z,49.41
2019-02-25T09:07:20.745Z,48.01
2019-02-25T09:08:13.897Z,47.27
2019-02-25T09:09:13.924Z,48.01
2019-02-25T09:10:13.934Z,48.22
2019-02-25T09:11:14.469Z,47.68
2019-02-25T09:12:15.885Z,49.19
2019-02-25T09:13:13.847Z,48.50
2019-02-25T09:14:13.886Z,47.89
2019-02-25T09:15:13.818Z,49.98
2019-02-25T09:16:13.827Z,51.87
2019-02-25T09:17:15.987Z,52.59
2019-02-25T09:18:13.790Z,52.08
2019-02-25T09:19:15.859Z,52.92
2019-02-25T09:20:13.778Z,53.54
2019-02-25T09:21:13.769Z,53.85
2019-02-25T09:22:13.761Z,52.31
2019-02-25T09:23:13.780Z,51.34
2019-02-25T09:24:13.733Z,50.90
2019-02-25T09:25:13.826Z,50.01
2019-02-25T09:26:13.721Z,48.86
2019-02-25T09:27:13.752Z,47.92
2019-02-25T09:28:13.692Z,47.82
2019-02-25T09:29:14.713Z,47.08
2019-02-25T09:30:13.664Z,47.57
2019-02-25T09:31:13.784Z,46.43
2019-02-25T09:32:13.644Z,46.00
2019-02-25T09:33:13.650Z,45.06
2019-02-25T09:34:13.606Z,45.26
2019-02-25T09:35:13.695Z,45.16
2019-02-25T09:36:13.595Z,44.96
2019-02-25T09:37:13.576Z,45.06
2019-02-25T09:38:13.590Z,45.16
2019-02-25T09:39:13.567Z,45.89
2019-02-25T09:40:13.549Z,46.57
2019-02-25T09:41:13.648Z,48.05
2019-02-25T09:42:13.538Z,49.04
2019-02-25T09:43:13.538Z,51.15
2019-02-25T09:44:13.509Z,52.84
2019-02-25T09:45:13.583Z,54.25
2019-02-25T09:46:13.511Z,55.10
2019-02-25T09:47:13.510Z,56.59
2019-02-25T09:48:13.448Z,57.65
2019-02-25T09:49:13.556Z,57.34
2019-02-25T09:50:13.431Z,58.81
2019-02-25T09:51:14.442Z,59.33
2019-02-25T09:52:13.434Z,59.66
2019-02-25T09:53:13.404Z,60.38
2019-02-25T09:54:13.507Z,60.59
2019-02-25T09:55:13.376Z,60.59
2019-02-25T09:56:13.444Z,61.00
2019-02-25T09:57:13.355Z,61.82
2019-02-25T09:58:13.344Z,61.24
2019-02-25T09:59:13.335Z,61.21
2019-02-25T10:00:13.426Z,62.03
2019-02-25T10:01:13.346Z,62.24
2019-02-25T10:02:13.332Z,62.31
2019-02-25T10:03:13.288Z,61.31
2019-02-25T10:04:13.277Z,61.28
2019-02-25T10:05:13.336Z,61.49
2019-02-25T10:06:13.279Z,60.94
2019-02-25T10:07:13.261Z,61.46
2019-02-25T10:08:13.240Z,61.25
2019-02-25T10:09:13.262Z,61.15
2019-02-25T10:10:13.290Z,61.05
2019-02-25T10:11:13.221Z,61.02
2019-02-25T10:12:13.221Z,61.22
2019-02-25T10:13:13.223Z,60.61
2019-02-25T10:14:13.252Z,61.63
2019-02-25T10:15:13.162Z,60.81
2019-02-25T10:16:13.243Z,60.71
2019-02-25T10:17:13.145Z,61.02
2019-02-25T10:18:13.223Z,60.58
2019-02-25T10:19:13.114Z,61.09
2019-02-25T10:20:13.095Z,60.47
2019-02-25T10:21:13.115Z,60.58
2019-02-25T10:22:13.198Z,60.06
2019-02-25T10:23:13.076Z,59.83
2019-02-25T10:24:13.136Z,59.73
2019-02-25T10:25:13.047Z,58.39
2019-02-25T10:26:13.118Z,58.78
2019-02-25T10:27:13.031Z,58.26
2019-02-25T10:28:13.108Z,57.85
2019-02-25T10:29:13.020Z,58.13
2019-02-25T10:30:13.044Z,56.90
2019-02-25T10:31:13.710Z,56.77
2019-02-25T10:32:13.074Z,56.79
2019-02-25T10:33:12.961Z,57.08
2019-02-25T10:34:14.031Z,57.70
2019-02-25T10:35:12.942Z,56.67
2019-02-25T10:36:12.922Z,56.23
2019-02-25T10:37:13.514Z,55.62
2019-02-25T10:38:12.986Z,55.10
2019-02-25T10:39:14.926Z,54.97
2019-02-25T10:40:13.658Z,54.57
2019-02-25T10:41:12.874Z,53.95
2019-02-25T10:42:13.874Z,54.05
2019-02-25T10:43:12.836Z,53.85
2019-02-25T10:44:12.877Z,51.18
2019-02-25T10:45:13.487Z,47.49
2019-02-25T10:46:13.856Z,46.44
2019-02-25T10:47:13.593Z,46.44
2019-02-25T10:48:12.857Z,47.16
2019-02-25T10:49:12.756Z,43.57
2019-02-25T10:50:12.818Z,42.42
2019-02-25T10:51:13.697Z,41.80
2019-02-25T10:52:14.575Z,41.48
2019-02-25T10:53:13.683Z,40.95
2019-02-25T10:54:14.404Z,39.60
2019-02-25T10:55:12.710Z,39.80
2019-02-25T10:56:14.518Z,39.69
2019-02-25T10:57:12.691Z,39.99
2019-02-25T10:58:12.663Z,39.46
2019-02-25T10:59:12.712Z,39.15
2019-02-25T11:00:13.805Z,40.05
2019-02-25T11:01:17.609Z,40.26
2019-02-25T11:02:15.239Z,38.42
2019-02-25T11:03:13.499Z,38.73
2019-02-25T11:04:12.588Z,38.09
2019-02-25T11:05:12.626Z,38.09
2019-02-25T11:06:12.595Z,38.71
2019-02-25T11:07:13.686Z,38.30
2019-02-25T11:08:13.882Z,39.01
2019-02-25T11:09:13.414Z,40.44
2019-02-25T11:10:14.011Z,41.26
2019-02-25T11:11:12.559Z,41.18
2019-02-25T11:12:12.599Z,39.85
2019-02-25T11:13:12.511Z,39.34
2019-02-25T11:14:12.499Z,40.44
2019-02-25T11:15:13.827Z,40.44
2019-02-25T11:16:16.459Z,40.24
2019-02-25T11:17:13.871Z,39.53
2019-02-25T11:18:13.541Z,39.51
2019-02-25T11:19:12.449Z,40.42
2019-02-25T11:20:12.423Z,40.42
2019-02-25T11:21:12.513Z,40.94
2019-02-25T11:22:14.108Z,40.32
2019-02-25T11:23:15.506Z,40.32
2019-02-25T11:24:12.396Z,40.81
2019-02-25T11:25:12.375Z,40.12
2019-02-25T11:26:12.365Z,40.63
2019-02-25T11:27:12.456Z,40.83
2019-02-25T11:28:24.809Z,40.42
2019-02-25T11:29:13.871Z,40.41
2019-02-25T11:30:14.218Z,40.51
2019-02-25T11:31:12.330Z,40.61
2019-02-25T11:32:12.399Z,40.81
2019-02-25T11:33:12.309Z,41.12
2019-02-25T11:34:12.290Z,42.12
2019-02-25T11:35:13.029Z,40.90
2019-02-25T11:36:12.704Z,41.08
2019-02-25T11:37:12.352Z,41.59
2019-02-25T11:38:12.232Z,41.28
2019-02-25T11:39:12.231Z,41.06
2019-02-25T11:40:12.223Z,41.19
2019-02-25T11:41:12.273Z,40.06
2019-02-25T11:42:13.528Z,40.45
2019-02-25T11:43:13.301Z,39.03
2019-02-25T11:44:12.148Z,39.43
2019-02-25T11:45:12.246Z,39.94
2019-02-25T11:46:12.135Z,39.82
2019-02-25T11:47:12.135Z,39.31
2019-02-25T11:48:12.136Z,39.82
2019-02-25T11:49:12.217Z,39.29
2019-02-25T11:50:12.095Z,38.58
2019-02-25T11:51:12.148Z,37.56
2019-02-25T11:52:12.080Z,39.29
2019-02-25T11:53:13.118Z,39.29
2019-02-25T11:54:12.040Z,39.51
2019-02-25T11:55:12.119Z,39.19
2019-02-25T11:56:12.021Z,38.58
2019-02-25T11:57:12.100Z,39.29
2019-02-25T11:58:12.015Z,38.58
2019-02-25T11:59:12.091Z,38.58
2019-02-25T12:00:11.976Z,39.60
2019-02-25T12:01:12.033Z,39.80
2019-02-25T12:02:11.992Z,40.31
2019-02-25T12:03:14.023Z,40.11
2019-02-25T12:04:11.944Z,39.31
2019-02-25T12:05:12.004Z,38.49
2019-02-25T12:06:11.909Z,40.64
2019-02-25T12:07:11.996Z,41.14
2019-02-25T12:08:11.897Z,41.25
2019-02-25T12:09:11.867Z,40.12
2019-02-25T12:10:11.876Z,43.08
2019-02-25T12:11:11.918Z,41.55
2019-02-25T12:12:11.869Z,43.51
2019-02-25T12:13:11.858Z,41.06
2019-02-25T12:14:11.839Z,40.55
2019-02-25T12:15:11.899Z,41.27
2019-02-25T12:16:11.812Z,40.76
2019-02-25T12:17:11.892Z,42.18
2019-02-25T12:18:11.781Z,41.59
2019-02-25T12:19:17.904Z,42.29
2019-02-25T12:20:12.861Z,43.94
2019-02-25T12:21:11.732Z,42.10
2019-02-25T12:22:11.822Z,40.78
2019-02-25T12:23:11.723Z,41.19
2019-02-25T12:24:11.803Z,41.08
2019-02-25T12:25:11.704Z,41.08
2019-02-25T12:26:11.744Z,41.59
2019-02-25T12:27:11.935Z,40.26
2019-02-25T12:28:11.788Z,40.47
2019-02-25T12:29:11.636Z,43.94
2019-02-25T12:30:12.732Z,44.55
2019-02-25T12:31:11.637Z,44.96
2019-02-25T12:32:11.697Z,45.98
2019-02-25T12:33:11.608Z,48.02
2019-02-25T12:34:11.690Z,48.73
2019-02-25T12:35:11.588Z,48.75
2019-02-25T12:36:13.639Z,49.16
2019-02-25T12:37:11.590Z,47.73
2019-02-25T12:38:11.661Z,48.03
2019-02-25T12:39:11.555Z,48.65
2019-02-25T12:40:11.612Z,49.69
2019-02-25T12:41:11.524Z,47.34
2019-02-25T12:42:11.523Z,46.63
2019-02-25T12:43:11.604Z,43.24
2019-02-25T12:44:11.493Z,42.12
2019-02-25T12:45:13.641Z,43.55
2019-02-25T12:46:11.474Z,42.10
2019-02-25T12:47:11.465Z,41.49
2019-02-25T12:48:11.437Z,41.08
2019-02-25T12:49:18.267Z,42.92
2019-02-25T12:50:11.406Z,43.73
2019-02-25T12:51:11.448Z,42.10
2019-02-25T12:52:11.407Z,41.69